sensor_id;sensor_type;location;lat;lon;timestamp;temperature;humidity
1359;DHT22;673;48.098;14.422;2023-12-22T00:00:31;4.10;99.90
1359;DHT22;673;48.098;14.422;2023-12-22T00:02:58;4.00;99.90
1359;DHT22;673;48.098;14.422;2023-12-22T00:05:26;4.00;99.90
1359;DHT22;673;48.098;14.422;2023-12-22T00:07:53;3.90;99.90
1359;DHT22;673;48.098;14.422;2023-12-22T00:10:21;3.90;99.90
1359;DHT22;673;48.098;14.422;2023-12-22T00:12:49;3.90;99.90
1359;DHT22;673;48.098;14.422;2023-12-22T00:15:16;3.90;99.90
1359;DHT22;673;48.098;14.422;2023-12-22T00:17:43;3.90;99.90
1359;DHT22;673;48.098;14.422;2023-12-22T00:20:10;3.90;99.90
1359;DHT22;673;48.098;14.422;2023-12-22T00:22:39;3.90;99.90
1359;DHT22;673;48.098;14.422;2023-12-22T00:25:07;3.90;99.90
1359;DHT22;673;48.098;14.422;2023-12-22T00:27:35;3.90;99.90
1359;DHT22;673;48.098;14.422;2023-12-22T00:30:04;3.90;99.90
1359;DHT22;673;48.098;14.422;2023-12-22T00:32:32;3.90;99.90
1359;DHT22;673;48.098;14.422;2023-12-22T00:34:58;3.90;99.90
1359;DHT22;673;48.098;14.422;2023-12-22T00:37:25;3.90;99.90
1359;DHT22;673;48.098;14.422;2023-12-22T00:39:52;3.90;99.90
1359;DHT22;673;48.098;14.422;2023-12-22T00:42:19;3.90;99.90
1359;DHT22;673;48.098;14.422;2023-12-22T00:44:46;3.90;99.90
1359;DHT22;673;48.098;14.422;2023-12-22T00:47:14;3.90;99.90
1359;DHT22;673;48.098;14.422;2023-12-22T00:49:41;4.00;99.90
1359;DHT22;673;48.098;14.422;2023-12-22T00:52:08;4.00;99.90
1359;DHT22;673;48.098;14.422;2023-12-22T00:54:35;4.00;99.90
1359;DHT22;673;48.098;14.422;2023-12-22T00:57:02;4.00;99.90
1359;DHT22;673;48.098;14.422;2023-12-22T00:59:29;4.00;99.90
1359;DHT22;673;48.098;14.422;2023-12-22T01:01:56;3.90;99.90
1359;DHT22;673;48.098;14.422;2023-12-22T01:04:24;3.90;99.90
1359;DHT22;673;48.098;14.422;2023-12-22T01:06:51;3.90;99.90
1359;DHT22;673;48.098;14.422;2023-12-22T01:09:18;3.90;99.90
1359;DHT22;673;48.098;14.422;2023-12-22T01:11:45;3.80;99.90
1359;DHT22;673;48.098;14.422;2023-12-22T01:14:12;3.80;99.90
1359;DHT22;673;48.098;14.422;2023-12-22T01:16:39;3.80;99.90
1359;DHT22;673;48.098;14.422;2023-12-22T01:19:06;3.80;99.90
1359;DHT22;673;48.098;14.422;2023-12-22T01:21:34;3.80;99.90
1359;DHT22;673;48.098;14.422;2023-12-22T01:24:02;3.90;99.90
1359;DHT22;673;48.098;14.422;2023-12-22T01:26:29;3.90;99.90
1359;DHT22;673;48.098;14.422;2023-12-22T01:28:56;4.00;99.90
1359;DHT22;673;48.098;14.422;2023-12-22T01:31:23;4.00;99.90
1359;DHT22;673;48.098;14.422;2023-12-22T01:33:50;4.00;99.90
1359;DHT22;673;48.098;14.422;2023-12-22T01:36:16;4.10;99.90
1359;DHT22;673;48.098;14.422;2023-12-22T01:38:45;4.10;99.90
1359;DHT22;673;48.098;14.422;2023-12-22T01:41:12;4.20;99.90
1359;DHT22;673;48.098;14.422;2023-12-22T01:43:39;4.10;99.90
1359;DHT22;673;48.098;14.422;2023-12-22T01:46:06;4.10;99.90
1359;DHT22;673;48.098;14.422;2023-12-22T01:48:35;4.10;99.90
1359;DHT22;673;48.098;14.422;2023-12-22T01:51:03;4.00;99.90
1359;DHT22;673;48.098;14.422;2023-12-22T01:53:31;4.00;99.90
1359;DHT22;673;48.098;14.422;2023-12-22T01:56:00;4.00;99.90
1359;DHT22;673;48.098;14.422;2023-12-22T01:58:29;4.10;99.90
1359;DHT22;673;48.098;14.422;2023-12-22T02:00:57;4.10;99.90
1359;DHT22;673;48.098;14.422;2023-12-22T02:03:24;4.10;99.90
1359;DHT22;673;48.098;14.422;2023-12-22T02:05:51;4.20;99.90
1359;DHT22;673;48.098;14.422;2023-12-22T02:08:18;4.20;99.90
1359;DHT22;673;48.098;14.422;2023-12-22T02:10:46;4.20;99.90
1359;DHT22;673;48.098;14.422;2023-12-22T02:13:15;4.30;99.90
1359;DHT22;673;48.098;14.422;2023-12-22T02:15:42;4.40;99.90
1359;DHT22;673;48.098;14.422;2023-12-22T02:18:12;4.40;99.90
1359;DHT22;673;48.098;14.422;2023-12-22T02:20:41;4.30;99.90
1359;DHT22;673;48.098;14.422;2023-12-22T02:23:11;4.30;99.90
1359;DHT22;673;48.098;14.422;2023-12-22T02:25:38;4.30;99.90
1359;DHT22;673;48.098;14.422;2023-12-22T02:28:07;4.30;99.90
1359;DHT22;673;48.098;14.422;2023-12-22T02:30:41;4.20;99.90
1359;DHT22;673;48.098;14.422;2023-12-22T02:33:10;4.10;99.90
1359;DHT22;673;48.098;14.422;2023-12-22T02:35:39;4.10;99.90
1359;DHT22;673;48.098;14.422;2023-12-22T02:38:08;4.00;99.90
1359;DHT22;673;48.098;14.422;2023-12-22T02:40:37;3.90;99.90
1359;DHT22;673;48.098;14.422;2023-12-22T02:43:05;3.90;99.90
1359;DHT22;673;48.098;14.422;2023-12-22T02:45:33;3.90;99.90
1359;DHT22;673;48.098;14.422;2023-12-22T02:48:00;3.90;99.90
1359;DHT22;673;48.098;14.422;2023-12-22T02:50:27;4.00;99.90
1359;DHT22;673;48.098;14.422;2023-12-22T02:52:55;3.90;99.90
1359;DHT22;673;48.098;14.422;2023-12-22T02:55:22;3.90;99.90
1359;DHT22;673;48.098;14.422;2023-12-22T02:57:50;3.90;99.90
1359;DHT22;673;48.098;14.422;2023-12-22T03:00:17;4.00;99.90
1359;DHT22;673;48.098;14.422;2023-12-22T03:02:44;3.90;99.90
1359;DHT22;673;48.098;14.422;2023-12-22T03:05:11;3.90;99.90
1359;DHT22;673;48.098;14.422;2023-12-22T03:07:38;3.90;99.90
1359;DHT22;673;48.098;14.422;2023-12-22T03:10:05;4.00;99.90
1359;DHT22;673;48.098;14.422;2023-12-22T03:12:32;4.00;99.90
1359;DHT22;673;48.098;14.422;2023-12-22T03:15:01;4.00;99.90
1359;DHT22;673;48.098;14.422;2023-12-22T03:17:28;4.00;99.90
1359;DHT22;673;48.098;14.422;2023-12-22T03:19:55;4.10;99.90
1359;DHT22;673;48.098;14.422;2023-12-22T03:22:22;4.00;99.90
1359;DHT22;673;48.098;14.422;2023-12-22T03:24:49;4.00;99.90
1359;DHT22;673;48.098;14.422;2023-12-22T03:27:16;4.00;99.90
1359;DHT22;673;48.098;14.422;2023-12-22T03:29:43;3.90;99.90
1359;DHT22;673;48.098;14.422;2023-12-22T03:32:12;4.00;99.90
1359;DHT22;673;48.098;14.422;2023-12-22T03:34:39;3.90;99.90
1359;DHT22;673;48.098;14.422;2023-12-22T03:37:06;3.80;99.90
1359;DHT22;673;48.098;14.422;2023-12-22T03:39:33;3.80;99.90
1359;DHT22;673;48.098;14.422;2023-12-22T03:42:00;3.80;99.90
1359;DHT22;673;48.098;14.422;2023-12-22T03:44:27;3.70;99.90
1359;DHT22;673;48.098;14.422;2023-12-22T03:46:54;3.50;99.90
1359;DHT22;673;48.098;14.422;2023-12-22T03:49:23;3.40;99.90
1359;DHT22;673;48.098;14.422;2023-12-22T03:51:50;3.20;99.90
1359;DHT22;673;48.098;14.422;2023-12-22T03:54:16;3.10;99.90
1359;DHT22;673;48.098;14.422;2023-12-22T03:56:44;3.00;99.90
1359;DHT22;673;48.098;14.422;2023-12-22T03:59:11;3.00;99.90
1359;DHT22;673;48.098;14.422;2023-12-22T04:01:38;3.00;99.90
1359;DHT22;673;48.098;14.422;2023-12-22T04:04:05;3.00;99.90
1359;DHT22;673;48.098;14.422;2023-12-22T04:06:38;3.00;99.90
1359;DHT22;673;48.098;14.422;2023-12-22T04:09:05;2.90;99.90
1359;DHT22;673;48.098;14.422;2023-12-22T04:11:32;3.00;99.90
1359;DHT22;673;48.098;14.422;2023-12-22T04:14:00;2.90;99.90
1359;DHT22;673;48.098;14.422;2023-12-22T04:16:27;2.90;99.90
1359;DHT22;673;48.098;14.422;2023-12-22T04:18:54;2.90;99.90
1359;DHT22;673;48.098;14.422;2023-12-22T04:21:21;2.80;99.90
1359;DHT22;673;48.098;14.422;2023-12-22T04:23:49;2.80;99.90
1359;DHT22;673;48.098;14.422;2023-12-22T04:26:16;2.80;99.90
1359;DHT22;673;48.098;14.422;2023-12-22T04:28:43;2.80;99.90
1359;DHT22;673;48.098;14.422;2023-12-22T04:31:10;2.80;99.90
1359;DHT22;673;48.098;14.422;2023-12-22T04:33:37;2.80;99.90
1359;DHT22;673;48.098;14.422;2023-12-22T04:36:04;2.70;99.90
1359;DHT22;673;48.098;14.422;2023-12-22T04:38:31;2.70;99.90
1359;DHT22;673;48.098;14.422;2023-12-22T04:40:59;2.70;99.90
1359;DHT22;673;48.098;14.422;2023-12-22T04:43:26;2.70;99.90
1359;DHT22;673;48.098;14.422;2023-12-22T04:45:53;2.60;99.90
1359;DHT22;673;48.098;14.422;2023-12-22T04:48:20;2.60;99.90
1359;DHT22;673;48.098;14.422;2023-12-22T04:50:47;2.60;99.90
1359;DHT22;673;48.098;14.422;2023-12-22T04:53:14;2.60;99.90
1359;DHT22;673;48.098;14.422;2023-12-22T04:55:41;2.60;99.90
1359;DHT22;673;48.098;14.422;2023-12-22T04:58:09;2.60;99.90
1359;DHT22;673;48.098;14.422;2023-12-22T05:00:36;2.60;99.90
1359;DHT22;673;48.098;14.422;2023-12-22T05:03:03;2.60;99.90
1359;DHT22;673;48.098;14.422;2023-12-22T05:05:30;2.50;99.90
1359;DHT22;673;48.098;14.422;2023-12-22T05:07:57;2.50;99.90
1359;DHT22;673;48.098;14.422;2023-12-22T05:10:24;2.50;99.90
1359;DHT22;673;48.098;14.422;2023-12-22T05:12:51;2.50;99.90
1359;DHT22;673;48.098;14.422;2023-12-22T05:15:20;2.50;99.90
1359;DHT22;673;48.098;14.422;2023-12-22T05:17:47;2.60;99.90
1359;DHT22;673;48.098;14.422;2023-12-22T05:20:14;2.60;99.90
1359;DHT22;673;48.098;14.422;2023-12-22T05:22:41;2.60;99.90
1359;DHT22;673;48.098;14.422;2023-12-22T05:25:08;2.60;99.90
1359;DHT22;673;48.098;14.422;2023-12-22T05:27:36;2.60;99.90
1359;DHT22;673;48.098;14.422;2023-12-22T05:30:03;2.50;99.90
1359;DHT22;673;48.098;14.422;2023-12-22T05:32:32;2.40;99.90
1359;DHT22;673;48.098;14.422;2023-12-22T05:34:59;2.50;99.90
1359;DHT22;673;48.098;14.422;2023-12-22T05:37:26;2.50;99.90
1359;DHT22;673;48.098;14.422;2023-12-22T05:39:53;2.40;99.90
1359;DHT22;673;48.098;14.422;2023-12-22T05:42:21;2.40;99.90
1359;DHT22;673;48.098;14.422;2023-12-22T05:44:48;2.40;99.90
1359;DHT22;673;48.098;14.422;2023-12-22T05:47:15;2.50;99.90
1359;DHT22;673;48.098;14.422;2023-12-22T05:49:44;2.50;99.90
1359;DHT22;673;48.098;14.422;2023-12-22T05:52:12;2.50;99.90
1359;DHT22;673;48.098;14.422;2023-12-22T05:54:39;2.50;99.90
1359;DHT22;673;48.098;14.422;2023-12-22T05:57:06;2.50;99.90
1359;DHT22;673;48.098;14.422;2023-12-22T05:59:33;2.60;99.90
1359;DHT22;673;48.098;14.422;2023-12-22T06:02:00;2.60;99.90
1359;DHT22;673;48.098;14.422;2023-12-22T06:04:28;2.60;99.90
1359;DHT22;673;48.098;14.422;2023-12-22T06:06:56;2.60;99.90
1359;DHT22;673;48.098;14.422;2023-12-22T06:09:23;2.70;99.90
1359;DHT22;673;48.098;14.422;2023-12-22T06:11:50;2.70;99.90
1359;DHT22;673;48.098;14.422;2023-12-22T06:14:17;2.70;99.90
1359;DHT22;673;48.098;14.422;2023-12-22T06:16:44;2.70;99.90
1359;DHT22;673;48.098;14.422;2023-12-22T06:19:11;2.70;99.90
1359;DHT22;673;48.098;14.422;2023-12-22T06:21:38;2.70;99.90
1359;DHT22;673;48.098;14.422;2023-12-22T06:24:07;2.80;99.90
1359;DHT22;673;48.098;14.422;2023-12-22T06:26:35;2.80;99.90
1359;DHT22;673;48.098;14.422;2023-12-22T06:29:02;2.80;99.90
1359;DHT22;673;48.098;14.422;2023-12-22T06:31:29;2.80;99.90
1359;DHT22;673;48.098;14.422;2023-12-22T06:33:59;2.90;99.90
1359;DHT22;673;48.098;14.422;2023-12-22T06:36:28;3.00;99.90
1359;DHT22;673;48.098;14.422;2023-12-22T06:38:55;3.00;99.90
1359;DHT22;673;48.098;14.422;2023-12-22T06:41:25;3.00;99.90
1359;DHT22;673;48.098;14.422;2023-12-22T06:43:53;3.00;99.90
1359;DHT22;673;48.098;14.422;2023-12-22T06:46:21;3.00;99.90
1359;DHT22;673;48.098;14.422;2023-12-22T06:48:49;3.00;99.90
1359;DHT22;673;48.098;14.422;2023-12-22T06:51:19;3.00;99.90
1359;DHT22;673;48.098;14.422;2023-12-22T06:53:46;3.00;99.90
1359;DHT22;673;48.098;14.422;2023-12-22T06:56:17;3.00;99.90
1359;DHT22;673;48.098;14.422;2023-12-22T06:58:47;2.90;99.90
1359;DHT22;673;48.098;14.422;2023-12-22T07:01:18;2.90;99.90
1359;DHT22;673;48.098;14.422;2023-12-22T07:03:46;2.80;99.90
1359;DHT22;673;48.098;14.422;2023-12-22T07:06:14;2.80;99.90
1359;DHT22;673;48.098;14.422;2023-12-22T07:08:41;2.70;99.90
1359;DHT22;673;48.098;14.422;2023-12-22T07:11:08;2.70;99.90
1359;DHT22;673;48.098;14.422;2023-12-22T07:13:35;2.70;99.90
1359;DHT22;673;48.098;14.422;2023-12-22T07:16:04;2.70;99.90
1359;DHT22;673;48.098;14.422;2023-12-22T07:18:32;2.70;99.90
1359;DHT22;673;48.098;14.422;2023-12-22T07:20:59;2.70;99.90
1359;DHT22;673;48.098;14.422;2023-12-22T07:23:26;2.70;99.90
1359;DHT22;673;48.098;14.422;2023-12-22T07:25:53;2.70;99.90
1359;DHT22;673;48.098;14.422;2023-12-22T07:28:20;2.70;99.90
1359;DHT22;673;48.098;14.422;2023-12-22T07:30:47;2.70;99.90
1359;DHT22;673;48.098;14.422;2023-12-22T07:33:15;2.70;99.90
1359;DHT22;673;48.098;14.422;2023-12-22T07:35:46;2.70;99.90
1359;DHT22;673;48.098;14.422;2023-12-22T07:38:14;2.70;99.90
1359;DHT22;673;48.098;14.422;2023-12-22T07:40:41;2.60;99.90
1359;DHT22;673;48.098;14.422;2023-12-22T07:43:09;2.70;99.90
1359;DHT22;673;48.098;14.422;2023-12-22T07:45:35;2.60;99.90
1359;DHT22;673;48.098;14.422;2023-12-22T07:48:04;2.60;99.90
1359;DHT22;673;48.098;14.422;2023-12-22T07:50:32;2.70;99.90
1359;DHT22;673;48.098;14.422;2023-12-22T07:52:59;2.70;99.90
1359;DHT22;673;48.098;14.422;2023-12-22T07:55:26;2.80;99.90
1359;DHT22;673;48.098;14.422;2023-12-22T07:57:53;2.80;99.90
1359;DHT22;673;48.098;14.422;2023-12-22T08:00:20;2.80;99.90
1359;DHT22;673;48.098;14.422;2023-12-22T08:02:47;2.80;99.90
1359;DHT22;673;48.098;14.422;2023-12-22T08:05:14;2.90;99.90
1359;DHT22;673;48.098;14.422;2023-12-22T08:07:43;2.90;99.90
1359;DHT22;673;48.098;14.422;2023-12-22T08:10:10;3.00;99.90
1359;DHT22;673;48.098;14.422;2023-12-22T08:12:37;3.10;99.90
1359;DHT22;673;48.098;14.422;2023-12-22T08:15:04;3.10;99.90
1359;DHT22;673;48.098;14.422;2023-12-22T08:17:32;3.20;99.90
1359;DHT22;673;48.098;14.422;2023-12-22T08:19:59;3.30;99.90
1359;DHT22;673;48.098;14.422;2023-12-22T08:22:26;3.30;99.90
1359;DHT22;673;48.098;14.422;2023-12-22T08:24:58;3.30;99.90
1359;DHT22;673;48.098;14.422;2023-12-22T08:27:25;3.30;99.90
1359;DHT22;673;48.098;14.422;2023-12-22T08:29:52;3.30;99.90
1359;DHT22;673;48.098;14.422;2023-12-22T08:32:19;3.30;99.90
1359;DHT22;673;48.098;14.422;2023-12-22T08:34:46;3.30;99.90
1359;DHT22;673;48.098;14.422;2023-12-22T08:37:13;3.30;99.90
1359;DHT22;673;48.098;14.422;2023-12-22T08:39:40;3.40;99.90
1359;DHT22;673;48.098;14.422;2023-12-22T08:42:07;3.40;99.90
1359;DHT22;673;48.098;14.422;2023-12-22T08:44:34;3.50;99.90
1359;DHT22;673;48.098;14.422;2023-12-22T08:47:02;3.50;99.90
1359;DHT22;673;48.098;14.422;2023-12-22T08:49:29;3.50;99.90
1359;DHT22;673;48.098;14.422;2023-12-22T08:51:56;3.50;99.90
1359;DHT22;673;48.098;14.422;2023-12-22T08:54:23;3.50;99.90
1359;DHT22;673;48.098;14.422;2023-12-22T08:56:52;3.50;99.90
1359;DHT22;673;48.098;14.422;2023-12-22T08:59:20;3.50;99.90
1359;DHT22;673;48.098;14.422;2023-12-22T09:01:47;3.60;99.90
1359;DHT22;673;48.098;14.422;2023-12-22T09:04:14;3.60;99.90
1359;DHT22;673;48.098;14.422;2023-12-22T09:06:41;3.60;99.90
1359;DHT22;673;48.098;14.422;2023-12-22T09:09:08;3.70;99.90
1359;DHT22;673;48.098;14.422;2023-12-22T09:11:36;3.70;99.90
1359;DHT22;673;48.098;14.422;2023-12-22T09:14:05;3.60;99.90
1359;DHT22;673;48.098;14.422;2023-12-22T09:16:36;3.60;99.90
1359;DHT22;673;48.098;14.422;2023-12-22T09:19:03;3.60;99.90
1359;DHT22;673;48.098;14.422;2023-12-22T09:21:30;3.60;99.90
1359;DHT22;673;48.098;14.422;2023-12-22T09:23:57;3.60;99.90
1359;DHT22;673;48.098;14.422;2023-12-22T09:26:24;3.70;99.90
1359;DHT22;673;48.098;14.422;2023-12-22T09:28:51;3.70;99.90
1359;DHT22;673;48.098;14.422;2023-12-22T09:31:18;3.80;99.90
1359;DHT22;673;48.098;14.422;2023-12-22T09:33:47;3.80;99.90
1359;DHT22;673;48.098;14.422;2023-12-22T09:36:14;3.90;99.90
1359;DHT22;673;48.098;14.422;2023-12-22T09:38:41;4.00;99.90
1359;DHT22;673;48.098;14.422;2023-12-22T09:41:09;4.10;99.90
1359;DHT22;673;48.098;14.422;2023-12-22T09:43:37;4.30;99.90
1359;DHT22;673;48.098;14.422;2023-12-22T09:46:06;4.30;99.90
1359;DHT22;673;48.098;14.422;2023-12-22T09:48:34;4.20;99.90
1359;DHT22;673;48.098;14.422;2023-12-22T09:51:07;4.20;99.90
1359;DHT22;673;48.098;14.422;2023-12-22T09:53:36;4.20;99.90
1359;DHT22;673;48.098;14.422;2023-12-22T09:56:05;4.20;99.90
1359;DHT22;673;48.098;14.422;2023-12-22T09:58:34;4.10;99.90
1359;DHT22;673;48.098;14.422;2023-12-22T10:01:03;4.10;99.90
1359;DHT22;673;48.098;14.422;2023-12-22T10:03:33;4.10;99.90
1359;DHT22;673;48.098;14.422;2023-12-22T10:06:00;4.10;99.90
1359;DHT22;673;48.098;14.422;2023-12-22T10:08:29;4.10;99.90
1359;DHT22;673;48.098;14.422;2023-12-22T10:10:56;4.20;99.90
1359;DHT22;673;48.098;14.422;2023-12-22T10:13:24;4.20;99.90
1359;DHT22;673;48.098;14.422;2023-12-22T10:15:53;4.30;99.90
1359;DHT22;673;48.098;14.422;2023-12-22T10:18:21;4.40;99.90
1359;DHT22;673;48.098;14.422;2023-12-22T10:20:49;4.50;99.90
1359;DHT22;673;48.098;14.422;2023-12-22T10:23:15;4.50;99.90
1359;DHT22;673;48.098;14.422;2023-12-22T10:25:44;4.70;99.90
1359;DHT22;673;48.098;14.422;2023-12-22T10:28:12;4.70;99.90
1359;DHT22;673;48.098;14.422;2023-12-22T10:30:40;4.80;99.90
1359;DHT22;673;48.098;14.422;2023-12-22T10:33:07;4.80;99.90
1359;DHT22;673;48.098;14.422;2023-12-22T10:35:34;4.90;99.90
1359;DHT22;673;48.098;14.422;2023-12-22T10:38:01;5.00;99.90
1359;DHT22;673;48.098;14.422;2023-12-22T10:40:28;5.00;99.90
1359;DHT22;673;48.098;14.422;2023-12-22T10:42:58;5.00;99.90
1359;DHT22;673;48.098;14.422;2023-12-22T10:45:26;5.10;99.90
1359;DHT22;673;48.098;14.422;2023-12-22T10:47:54;5.10;99.90
1359;DHT22;673;48.098;14.422;2023-12-22T10:50:22;5.10;99.90
1359;DHT22;673;48.098;14.422;2023-12-22T10:52:51;5.10;99.90
1359;DHT22;673;48.098;14.422;2023-12-22T10:55:19;5.20;99.90
1359;DHT22;673;48.098;14.422;2023-12-22T10:57:46;5.10;99.90
1359;DHT22;673;48.098;14.422;2023-12-22T11:00:16;5.10;99.90
1359;DHT22;673;48.098;14.422;2023-12-22T11:02:47;5.10;99.90
1359;DHT22;673;48.098;14.422;2023-12-22T11:05:15;5.20;99.90
1359;DHT22;673;48.098;14.422;2023-12-22T11:07:48;5.10;99.90
1359;DHT22;673;48.098;14.422;2023-12-22T11:10:19;5.10;99.90
1359;DHT22;673;48.098;14.422;2023-12-22T11:12:47;5.10;99.90
1359;DHT22;673;48.098;14.422;2023-12-22T11:15:16;5.00;99.90
1359;DHT22;673;48.098;14.422;2023-12-22T11:17:44;4.90;99.90
1359;DHT22;673;48.098;14.422;2023-12-22T11:20:13;4.80;99.90
1359;DHT22;673;48.098;14.422;2023-12-22T11:22:42;4.60;99.90
1359;DHT22;673;48.098;14.422;2023-12-22T11:25:10;4.40;99.90
1359;DHT22;673;48.098;14.422;2023-12-22T11:27:37;4.30;99.90
1359;DHT22;673;48.098;14.422;2023-12-22T11:30:05;4.20;99.90
1359;DHT22;673;48.098;14.422;2023-12-22T11:32:35;4.00;99.90
1359;DHT22;673;48.098;14.422;2023-12-22T11:35:02;4.00;99.90
1359;DHT22;673;48.098;14.422;2023-12-22T11:37:31;3.90;99.90
1359;DHT22;673;48.098;14.422;2023-12-22T11:39:59;3.80;99.90
1359;DHT22;673;48.098;14.422;2023-12-22T11:42:28;3.70;99.90
1359;DHT22;673;48.098;14.422;2023-12-22T11:44:57;3.70;99.90
1359;DHT22;673;48.098;14.422;2023-12-22T11:47:24;3.70;99.90
1359;DHT22;673;48.098;14.422;2023-12-22T11:49:55;3.70;99.90
1359;DHT22;673;48.098;14.422;2023-12-22T11:52:26;3.80;99.90
1359;DHT22;673;48.098;14.422;2023-12-22T11:54:56;3.80;99.90
1359;DHT22;673;48.098;14.422;2023-12-22T11:57:31;4.00;99.90
1359;DHT22;673;48.098;14.422;2023-12-22T12:00:00;4.10;99.90
1359;DHT22;673;48.098;14.422;2023-12-22T12:02:30;4.20;99.90
1359;DHT22;673;48.098;14.422;2023-12-22T12:04:59;4.30;99.90
1359;DHT22;673;48.098;14.422;2023-12-22T12:07:43;4.40;99.90
1359;DHT22;673;48.098;14.422;2023-12-22T12:10:12;4.50;99.90
1359;DHT22;673;48.098;14.422;2023-12-22T12:12:40;4.50;99.90
1359;DHT22;673;48.098;14.422;2023-12-22T12:15:09;4.50;99.90
1359;DHT22;673;48.098;14.422;2023-12-22T12:17:41;4.50;99.90
1359;DHT22;673;48.098;14.422;2023-12-22T12:20:10;4.50;99.90
1359;DHT22;673;48.098;14.422;2023-12-22T12:22:38;4.50;99.90
1359;DHT22;673;48.098;14.422;2023-12-22T12:25:09;4.30;99.90
1359;DHT22;673;48.098;14.422;2023-12-22T12:27:37;4.10;99.90
1359;DHT22;673;48.098;14.422;2023-12-22T12:30:13;3.60;99.90
1359;DHT22;673;48.098;14.422;2023-12-22T12:32:43;3.30;99.90
1359;DHT22;673;48.098;14.422;2023-12-22T12:35:12;3.00;99.90
1359;DHT22;673;48.098;14.422;2023-12-22T12:37:40;2.90;99.90
1359;DHT22;673;48.098;14.422;2023-12-22T12:40:11;2.80;99.90
1359;DHT22;673;48.098;14.422;2023-12-22T12:42:38;2.70;99.90
1359;DHT22;673;48.098;14.422;2023-12-22T12:45:06;2.50;99.90
1359;DHT22;673;48.098;14.422;2023-12-22T12:47:33;2.30;99.90
1359;DHT22;673;48.098;14.422;2023-12-22T12:50:01;2.10;99.90
1359;DHT22;673;48.098;14.422;2023-12-22T12:52:29;2.10;99.90
1359;DHT22;673;48.098;14.422;2023-12-22T12:54:57;2.10;99.90
1359;DHT22;673;48.098;14.422;2023-12-22T12:57:25;2.10;99.90
1359;DHT22;673;48.098;14.422;2023-12-22T12:59:52;2.00;99.90
1359;DHT22;673;48.098;14.422;2023-12-22T13:02:19;1.80;99.90
1359;DHT22;673;48.098;14.422;2023-12-22T13:04:48;1.80;99.90
1359;DHT22;673;48.098;14.422;2023-12-22T13:07:23;1.70;99.90
1359;DHT22;673;48.098;14.422;2023-12-22T13:09:52;1.60;99.90
1359;DHT22;673;48.098;14.422;2023-12-22T13:12:23;1.60;99.90
1359;DHT22;673;48.098;14.422;2023-12-22T13:14:50;1.50;99.90
1359;DHT22;673;48.098;14.422;2023-12-22T13:17:17;1.50;99.90
1359;DHT22;673;48.098;14.422;2023-12-22T13:19:45;1.50;99.90
1359;DHT22;673;48.098;14.422;2023-12-22T13:22:12;1.50;99.90
1359;DHT22;673;48.098;14.422;2023-12-22T13:24:39;1.60;99.90
1359;DHT22;673;48.098;14.422;2023-12-22T13:27:08;1.50;99.90
1359;DHT22;673;48.098;14.422;2023-12-22T13:29:44;1.50;99.90
1359;DHT22;673;48.098;14.422;2023-12-22T13:32:17;1.50;99.90
1359;DHT22;673;48.098;14.422;2023-12-22T13:34:51;1.60;99.90
1359;DHT22;673;48.098;14.422;2023-12-22T13:37:19;1.50;99.90
1359;DHT22;673;48.098;14.422;2023-12-22T13:39:46;1.40;99.90
1359;DHT22;673;48.098;14.422;2023-12-22T13:42:18;1.40;99.90
1359;DHT22;673;48.098;14.422;2023-12-22T13:44:47;1.30;99.90
1359;DHT22;673;48.098;14.422;2023-12-22T13:47:15;1.20;99.90
1359;DHT22;673;48.098;14.422;2023-12-22T13:49:42;1.20;99.90
1359;DHT22;673;48.098;14.422;2023-12-22T13:52:24;1.20;99.90
1359;DHT22;673;48.098;14.422;2023-12-22T13:54:52;1.20;99.90
1359;DHT22;673;48.098;14.422;2023-12-22T13:57:23;1.30;99.90
1359;DHT22;673;48.098;14.422;2023-12-22T13:59:50;1.30;99.90
1359;DHT22;673;48.098;14.422;2023-12-22T14:02:20;1.30;99.90
1359;DHT22;673;48.098;14.422;2023-12-22T14:04:47;1.30;99.90
1359;DHT22;673;48.098;14.422;2023-12-22T14:07:15;1.30;99.90
1359;DHT22;673;48.098;14.422;2023-12-22T14:09:42;1.40;99.90
1359;DHT22;673;48.098;14.422;2023-12-22T14:12:09;1.30;99.90
1359;DHT22;673;48.098;14.422;2023-12-22T14:14:37;1.30;99.90
1359;DHT22;673;48.098;14.422;2023-12-22T14:17:04;1.30;99.90
1359;DHT22;673;48.098;14.422;2023-12-22T14:19:31;1.30;99.90
1359;DHT22;673;48.098;14.422;2023-12-22T14:21:58;1.30;99.90
1359;DHT22;673;48.098;14.422;2023-12-22T14:24:25;1.40;99.90
1359;DHT22;673;48.098;14.422;2023-12-22T14:26:54;1.40;99.90
1359;DHT22;673;48.098;14.422;2023-12-22T14:29:21;1.50;99.90
1359;DHT22;673;48.098;14.422;2023-12-22T14:31:50;1.60;99.90
1359;DHT22;673;48.098;14.422;2023-12-22T14:34:17;1.60;99.90
1359;DHT22;673;48.098;14.422;2023-12-22T14:36:44;1.70;99.90
1359;DHT22;673;48.098;14.422;2023-12-22T14:39:11;1.70;99.90
1359;DHT22;673;48.098;14.422;2023-12-22T14:41:39;1.80;99.90
1359;DHT22;673;48.098;14.422;2023-12-22T14:44:06;1.90;99.90
1359;DHT22;673;48.098;14.422;2023-12-22T14:46:36;1.90;99.90
1359;DHT22;673;48.098;14.422;2023-12-22T14:49:05;1.90;99.90
1359;DHT22;673;48.098;14.422;2023-12-22T14:51:35;2.00;99.90
1359;DHT22;673;48.098;14.422;2023-12-22T14:54:03;2.00;99.90
1359;DHT22;673;48.098;14.422;2023-12-22T14:56:30;2.00;99.90
1359;DHT22;673;48.098;14.422;2023-12-22T14:58:56;2.20;99.90
1359;DHT22;673;48.098;14.422;2023-12-22T15:01:23;2.20;99.90
1359;DHT22;673;48.098;14.422;2023-12-22T15:03:50;2.20;99.90
1359;DHT22;673;48.098;14.422;2023-12-22T15:06:19;2.20;99.90
1359;DHT22;673;48.098;14.422;2023-12-22T15:08:46;2.20;99.90
1359;DHT22;673;48.098;14.422;2023-12-22T15:11:13;2.30;99.90
1359;DHT22;673;48.098;14.422;2023-12-22T15:13:39;2.30;99.90
1359;DHT22;673;48.098;14.422;2023-12-22T15:16:07;2.30;99.90
1359;DHT22;673;48.098;14.422;2023-12-22T15:18:34;2.40;99.90
1359;DHT22;673;48.098;14.422;2023-12-22T15:21:01;2.40;99.90
1359;DHT22;673;48.098;14.422;2023-12-22T15:23:29;2.40;99.90
1359;DHT22;673;48.098;14.422;2023-12-22T15:25:57;2.50;99.90
1359;DHT22;673;48.098;14.422;2023-12-22T15:28:24;2.50;99.90
1359;DHT22;673;48.098;14.422;2023-12-22T15:30:51;2.50;99.90
1359;DHT22;673;48.098;14.422;2023-12-22T15:33:18;2.60;99.90
1359;DHT22;673;48.098;14.422;2023-12-22T15:35:45;2.60;99.90
1359;DHT22;673;48.098;14.422;2023-12-22T15:38:14;2.70;99.90
1359;DHT22;673;48.098;14.422;2023-12-22T15:40:42;3.00;99.90
1359;DHT22;673;48.098;14.422;2023-12-22T15:43:09;3.30;99.90
1359;DHT22;673;48.098;14.422;2023-12-22T15:45:36;3.60;99.90
1359;DHT22;673;48.098;14.422;2023-12-22T15:48:03;3.80;99.90
1359;DHT22;673;48.098;14.422;2023-12-22T15:50:30;4.00;99.90
1359;DHT22;673;48.098;14.422;2023-12-22T15:52:57;4.20;99.90
1359;DHT22;673;48.098;14.422;2023-12-22T15:55:24;4.40;99.90
1359;DHT22;673;48.098;14.422;2023-12-22T15:57:52;4.60;99.90
1359;DHT22;673;48.098;14.422;2023-12-22T16:00:19;4.80;99.90
1359;DHT22;673;48.098;14.422;2023-12-22T16:02:46;4.80;99.90
1359;DHT22;673;48.098;14.422;2023-12-22T16:05:13;5.00;99.90
1359;DHT22;673;48.098;14.422;2023-12-22T16:07:40;5.00;99.90
1359;DHT22;673;48.098;14.422;2023-12-22T16:10:07;5.10;99.90
1359;DHT22;673;48.098;14.422;2023-12-22T16:12:36;5.10;99.90
1359;DHT22;673;48.098;14.422;2023-12-22T16:15:08;5.10;99.90
1359;DHT22;673;48.098;14.422;2023-12-22T16:17:35;5.10;99.90
1359;DHT22;673;48.098;14.422;2023-12-22T16:20:03;5.10;99.90